sensor_id;sensor_type;location;lat;lon;timestamp;P1;durP1;ratioP1;P2;durP2;ratioP2
68108;SDS011;54893;49.864;19.084;2023-02-03T00:04:53;14.13;;;5.40;;
68108;SDS011;54893;49.864;19.084;2023-02-03T00:09:54;17.10;;;7.57;;
68108;SDS011;54893;49.864;19.084;2023-02-03T00:14:55;16.50;;;7.25;;
68108;SDS011;54893;49.864;19.084;2023-02-03T00:19:56;16.53;;;7.90;;
68108;SDS011;54893;49.864;19.084;2023-02-03T00:24:56;16.50;;;6.73;;
68108;SDS011;54893;49.864;19.084;2023-02-03T00:29:56;15.00;;;6.30;;
68108;SDS011;54893;49.864;19.084;2023-02-03T00:34:57;16.15;;;6.78;;
68108;SDS011;54893;49.864;19.084;2023-02-03T00:39:57;13.93;;;6.17;;
68108;SDS011;54893;49.864;19.084;2023-02-03T00:44:58;18.33;;;6.37;;
68108;SDS011;54893;49.864;19.084;2023-02-03T00:49:58;15.33;;;7.00;;
68108;SDS011;54893;49.864;19.084;2023-02-03T00:54:58;17.77;;;7.10;;
68108;SDS011;54893;49.864;19.084;2023-02-03T00:59:59;12.03;;;5.30;;
68108;SDS011;54893;49.864;19.084;2023-02-03T01:04:59;16.57;;;6.27;;
68108;SDS011;54893;49.864;19.084;2023-02-03T01:09:59;14.73;;;6.07;;
68108;SDS011;54893;49.864;19.084;2023-02-03T01:15:00;17.60;;;5.40;;
68108;SDS011;54893;49.864;19.084;2023-02-03T01:20:00;17.47;;;5.90;;
68108;SDS011;54893;49.864;19.084;2023-02-03T01:25:00;13.37;;;5.10;;
68108;SDS011;54893;49.864;19.084;2023-02-03T01:30:01;26.57;;;9.37;;
68108;SDS011;54893;49.864;19.084;2023-02-03T01:35:01;20.93;;;8.80;;
68108;SDS011;54893;49.864;19.084;2023-02-03T01:40:02;25.07;;;9.00;;
68108;SDS011;54893;49.864;19.084;2023-02-03T01:45:03;19.70;;;6.80;;
68108;SDS011;54893;49.864;19.084;2023-02-03T01:50:17;22.38;;;7.25;;
68108;SDS011;54893;49.864;19.084;2023-02-03T01:55:22;21.23;;;7.93;;
68108;SDS011;54893;49.864;19.084;2023-02-03T02:00:27;20.95;;;7.93;;
68108;SDS011;54893;49.864;19.084;2023-02-03T02:10:32;27.95;;;8.38;;
68108;SDS011;54893;49.864;19.084;2023-02-03T02:37:13;23.10;;;7.82;;
68108;SDS011;54893;49.864;19.084;2023-02-03T02:42:27;24.33;;;8.10;;
68108;SDS011;54893;49.864;19.084;2023-02-03T02:47:34;22.52;;;7.53;;
68108;SDS011;54893;49.864;19.084;2023-02-03T02:52:35;23.97;;;8.50;;
68108;SDS011;54893;49.864;19.084;2023-02-03T02:57:40;20.95;;;8.45;;
68108;SDS011;54893;49.864;19.084;2023-02-03T03:02:42;20.70;;;8.50;;
68108;SDS011;54893;49.864;19.084;2023-02-03T03:07:47;23.02;;;7.00;;
68108;SDS011;54893;49.864;19.084;2023-02-03T03:12:56;20.77;;;7.03;;
68108;SDS011;54893;49.864;19.084;2023-02-03T03:18:04;22.37;;;8.03;;
68108;SDS011;54893;49.864;19.084;2023-02-03T03:23:18;23.88;;;7.28;;
68108;SDS011;54893;49.864;19.084;2023-02-03T03:28:25;20.50;;;7.90;;
68108;SDS011;54893;49.864;19.084;2023-02-03T03:33:32;19.25;;;7.30;;
68108;SDS011;54893;49.864;19.084;2023-02-03T03:38:43;18.70;;;6.83;;
68108;SDS011;54893;49.864;19.084;2023-02-03T03:43:49;18.02;;;6.53;;
68108;SDS011;54893;49.864;19.084;2023-02-03T03:49:03;17.10;;;6.85;;
68108;SDS011;54893;49.864;19.084;2023-02-03T03:54:07;17.80;;;6.72;;
68108;SDS011;54893;49.864;19.084;2023-02-03T03:59:10;18.90;;;7.40;;
68108;SDS011;54893;49.864;19.084;2023-02-03T04:04:15;16.45;;;6.18;;
68108;SDS011;54893;49.864;19.084;2023-02-03T04:09:17;17.17;;;6.03;;
68108;SDS011;54893;49.864;19.084;2023-02-03T04:14:17;17.27;;;6.57;;
68108;SDS011;54893;49.864;19.084;2023-02-03T04:19:18;14.33;;;6.00;;
68108;SDS011;54893;49.864;19.084;2023-02-03T04:24:18;13.57;;;4.80;;
68108;SDS011;54893;49.864;19.084;2023-02-03T04:29:18;13.43;;;4.70;;
68108;SDS011;54893;49.864;19.084;2023-02-03T04:34:19;10.68;;;3.90;;
68108;SDS011;54893;49.864;19.084;2023-02-03T04:39:20;15.35;;;5.32;;
68108;SDS011;54893;49.864;19.084;2023-02-03T04:44:21;12.77;;;5.07;;
68108;SDS011;54893;49.864;19.084;2023-02-03T04:49:21;14.80;;;5.00;;
68108;SDS011;54893;49.864;19.084;2023-02-03T04:54:22;12.32;;;4.30;;
68108;SDS011;54893;49.864;19.084;2023-02-03T04:59:22;10.33;;;3.80;;
68108;SDS011;54893;49.864;19.084;2023-02-03T05:04:22;13.03;;;5.00;;
68108;SDS011;54893;49.864;19.084;2023-02-03T05:09:23;11.70;;;4.17;;
68108;SDS011;54893;49.864;19.084;2023-02-03T05:14:24;14.50;;;4.68;;
68108;SDS011;54893;49.864;19.084;2023-02-03T05:19:24;10.40;;;3.80;;
68108;SDS011;54893;49.864;19.084;2023-02-03T05:24:25;12.53;;;4.50;;
68108;SDS011;54893;49.864;19.084;2023-02-03T05:29:25;10.90;;;4.23;;
68108;SDS011;54893;49.864;19.084;2023-02-03T05:34:26;17.63;;;6.50;;
68108;SDS011;54893;49.864;19.084;2023-02-03T05:39:26;15.67;;;6.30;;
68108;SDS011;54893;49.864;19.084;2023-02-03T05:44:27;12.87;;;4.53;;
68108;SDS011;54893;49.864;19.084;2023-02-03T05:49:27;17.65;;;6.95;;
68108;SDS011;54893;49.864;19.084;2023-02-03T05:54:28;18.65;;;6.03;;
68108;SDS011;54893;49.864;19.084;2023-02-03T05:59:28;13.03;;;5.90;;
68108;SDS011;54893;49.864;19.084;2023-02-03T06:04:28;15.37;;;5.67;;
68108;SDS011;54893;49.864;19.084;2023-02-03T06:09:29;13.73;;;5.37;;
68108;SDS011;54893;49.864;19.084;2023-02-03T06:14:29;14.13;;;6.65;;
68108;SDS011;54893;49.864;19.084;2023-02-03T06:19:29;13.75;;;5.15;;
68108;SDS011;54893;49.864;19.084;2023-02-03T06:24:30;16.13;;;5.95;;
68108;SDS011;54893;49.864;19.084;2023-02-03T06:29:30;16.08;;;6.40;;
68108;SDS011;54893;49.864;19.084;2023-02-03T06:34:31;16.30;;;6.23;;
68108;SDS011;54893;49.864;19.084;2023-02-03T06:39:32;20.63;;;6.72;;
68108;SDS011;54893;49.864;19.084;2023-02-03T06:44:32;22.30;;;7.27;;
68108;SDS011;54893;49.864;19.084;2023-02-03T06:49:32;19.73;;;8.47;;
68108;SDS011;54893;49.864;19.084;2023-02-03T06:54:33;19.57;;;7.07;;
68108;SDS011;54893;49.864;19.084;2023-02-03T06:59:33;15.60;;;6.80;;
68108;SDS011;54893;49.864;19.084;2023-02-03T07:04:33;17.57;;;6.13;;
68108;SDS011;54893;49.864;19.084;2023-02-03T07:09:34;18.33;;;7.17;;
68108;SDS011;54893;49.864;19.084;2023-02-03T07:14:34;16.30;;;6.60;;
68108;SDS011;54893;49.864;19.084;2023-02-03T07:19:35;14.50;;;5.78;;
68108;SDS011;54893;49.864;19.084;2023-02-03T07:24:35;14.97;;;5.20;;
68108;SDS011;54893;49.864;19.084;2023-02-03T07:29:35;11.47;;;4.17;;
68108;SDS011;54893;49.864;19.084;2023-02-03T07:34:36;11.57;;;3.90;;
68108;SDS011;54893;49.864;19.084;2023-02-03T07:39:36;12.30;;;4.57;;
68108;SDS011;54893;49.864;19.084;2023-02-03T07:44:36;13.27;;;4.83;;
68108;SDS011;54893;49.864;19.084;2023-02-03T07:49:37;17.17;;;6.50;;
68108;SDS011;54893;49.864;19.084;2023-02-03T07:54:37;15.47;;;4.83;;
68108;SDS011;54893;49.864;19.084;2023-02-03T07:59:37;16.63;;;5.57;;
68108;SDS011;54893;49.864;19.084;2023-02-03T08:04:37;12.80;;;4.85;;
68108;SDS011;54893;49.864;19.084;2023-02-03T08:09:38;12.87;;;4.43;;
68108;SDS011;54893;49.864;19.084;2023-02-03T08:14:38;8.57;;;3.57;;
68108;SDS011;54893;49.864;19.084;2023-02-03T08:19:38;14.37;;;4.90;;
68108;SDS011;54893;49.864;19.084;2023-02-03T08:24:39;14.13;;;5.33;;
68108;SDS011;54893;49.864;19.084;2023-02-03T08:29:43;15.23;;;5.10;;
68108;SDS011;54893;49.864;19.084;2023-02-03T08:34:44;10.25;;;3.90;;
68108;SDS011;54893;49.864;19.084;2023-02-03T08:39:45;12.43;;;4.27;;
68108;SDS011;54893;49.864;19.084;2023-02-03T08:44:45;9.57;;;3.80;;
68108;SDS011;54893;49.864;19.084;2023-02-03T08:49:47;9.53;;;2.47;;
68108;SDS011;54893;49.864;19.084;2023-02-03T08:54:48;9.03;;;3.60;;
68108;SDS011;54893;49.864;19.084;2023-02-03T08:59:48;9.40;;;3.33;;
68108;SDS011;54893;49.864;19.084;2023-02-03T09:04:50;11.10;;;3.67;;
68108;SDS011;54893;49.864;19.084;2023-02-03T09:09:50;12.20;;;4.87;;
68108;SDS011;54893;49.864;19.084;2023-02-03T09:14:51;9.30;;;3.90;;
68108;SDS011;54893;49.864;19.084;2023-02-03T09:19:51;10.70;;;3.63;;
68108;SDS011;54893;49.864;19.084;2023-02-03T09:24:52;8.43;;;2.97;;
68108;SDS011;54893;49.864;19.084;2023-02-03T09:29:52;9.37;;;2.87;;
68108;SDS011;54893;49.864;19.084;2023-02-03T09:34:52;9.63;;;2.40;;
68108;SDS011;54893;49.864;19.084;2023-02-03T09:39:53;7.10;;;2.30;;
68108;SDS011;54893;49.864;19.084;2023-02-03T09:50:24;10.07;;;3.03;;
68108;SDS011;54893;49.864;19.084;2023-02-03T09:55:33;10.35;;;3.30;;
68108;SDS011;54893;49.864;19.084;2023-02-03T10:10:52;11.73;;;3.60;;
68108;SDS011;54893;49.864;19.084;2023-02-03T10:21:47;13.75;;;5.05;;
68108;SDS011;54893;49.864;19.084;2023-02-03T10:26:54;10.10;;;3.60;;
68108;SDS011;54893;49.864;19.084;2023-02-03T10:31:55;11.07;;;3.70;;
68108;SDS011;54893;49.864;19.084;2023-02-03T10:36:57;14.52;;;6.82;;
68108;SDS011;54893;49.864;19.084;2023-02-03T10:42:02;13.97;;;5.17;;
68108;SDS011;54893;49.864;19.084;2023-02-03T10:47:10;13.15;;;5.45;;
68108;SDS011;54893;49.864;19.084;2023-02-03T10:52:25;10.52;;;4.50;;
68108;SDS011;54893;49.864;19.084;2023-02-03T10:57:33;9.97;;;4.23;;
68108;SDS011;54893;49.864;19.084;2023-02-03T11:02:35;10.90;;;4.40;;
68108;SDS011;54893;49.864;19.084;2023-02-03T11:07:36;9.57;;;3.30;;
68108;SDS011;54893;49.864;19.084;2023-02-03T11:12:36;8.70;;;2.87;;
68108;SDS011;54893;49.864;19.084;2023-02-03T11:17:36;10.70;;;5.30;;
68108;SDS011;54893;49.864;19.084;2023-02-03T11:22:43;8.43;;;3.83;;
68108;SDS011;54893;49.864;19.084;2023-02-03T11:27:44;8.50;;;3.20;;
68108;SDS011;54893;49.864;19.084;2023-02-03T11:32:45;7.25;;;2.67;;
68108;SDS011;54893;49.864;19.084;2023-02-03T11:37:48;6.63;;;2.80;;
68108;SDS011;54893;49.864;19.084;2023-02-03T11:53:10;5.20;;;2.10;;
68108;SDS011;54893;49.864;19.084;2023-02-03T12:09:27;4.95;;;1.63;;
68108;SDS011;54893;49.864;19.084;2023-02-03T12:14:54;5.57;;;2.40;;
68108;SDS011;54893;49.864;19.084;2023-02-03T12:30:59;8.03;;;2.97;;
68108;SDS011;54893;49.864;19.084;2023-02-03T12:36:14;7.65;;;3.50;;
68108;SDS011;54893;49.864;19.084;2023-02-03T12:41:23;7.43;;;3.35;;
68108;SDS011;54893;49.864;19.084;2023-02-03T12:51:54;7.82;;;3.80;;
68108;SDS011;54893;49.864;19.084;2023-02-03T12:57:19;7.27;;;3.63;;
68108;SDS011;54893;49.864;19.084;2023-02-03T13:02:28;8.02;;;3.30;;
68108;SDS011;54893;49.864;19.084;2023-02-03T13:07:37;8.88;;;3.70;;
68108;SDS011;54893;49.864;19.084;2023-02-03T13:12:41;8.20;;;3.73;;
68108;SDS011;54893;49.864;19.084;2023-02-03T13:17:47;12.82;;;4.70;;
68108;SDS011;54893;49.864;19.084;2023-02-03T13:22:53;8.87;;;3.53;;
68108;SDS011;54893;49.864;19.084;2023-02-03T13:44:00;6.37;;;2.30;;
68108;SDS011;54893;49.864;19.084;2023-02-03T13:49:02;6.63;;;2.75;;
68108;SDS011;54893;49.864;19.084;2023-02-03T13:54:06;8.83;;;3.30;;
68108;SDS011;54893;49.864;19.084;2023-02-03T14:24:39;5.97;;;2.70;;
68108;SDS011;54893;49.864;19.084;2023-02-03T14:29:44;7.18;;;2.80;;
68108;SDS011;54893;49.864;19.084;2023-02-03T14:34:45;6.37;;;2.77;;
68108;SDS011;54893;49.864;19.084;2023-02-03T15:07:02;8.00;;;3.22;;
68108;SDS011;54893;49.864;19.084;2023-02-03T15:12:14;6.50;;;2.87;;
68108;SDS011;54893;49.864;19.084;2023-02-03T15:22:23;8.13;;;4.00;;
68108;SDS011;54893;49.864;19.084;2023-02-03T15:27:25;9.27;;;3.90;;
68108;SDS011;54893;49.864;19.084;2023-02-03T15:32:35;9.87;;;3.70;;
68108;SDS011;54893;49.864;19.084;2023-02-03T15:43:32;7.23;;;3.60;;
68108;SDS011;54893;49.864;19.084;2023-02-03T15:53:40;7.90;;;4.75;;
68108;SDS011;54893;49.864;19.084;2023-02-03T15:58:44;9.93;;;5.60;;
68108;SDS011;54893;49.864;19.084;2023-02-03T16:03:46;13.18;;;6.40;;
68108;SDS011;54893;49.864;19.084;2023-02-03T16:08:51;12.53;;;6.40;;
68108;SDS011;54893;49.864;19.084;2023-02-03T16:13:52;7.40;;;3.20;;
68108;SDS011;54893;49.864;19.084;2023-02-03T16:18:58;10.93;;;4.82;;
68108;SDS011;54893;49.864;19.084;2023-02-03T16:24:03;11.53;;;6.37;;
68108;SDS011;54893;49.864;19.084;2023-02-03T16:29:09;19.77;;;9.90;;
68108;SDS011;54893;49.864;19.084;2023-02-03T16:34:30;12.10;;;5.77;;
68108;SDS011;54893;49.864;19.084;2023-02-03T16:39:49;11.38;;;5.38;;
68108;SDS011;54893;49.864;19.084;2023-02-03T16:45:13;10.27;;;4.95;;
68108;SDS011;54893;49.864;19.084;2023-02-03T16:50:35;10.83;;;5.33;;
68108;SDS011;54893;49.864;19.084;2023-02-03T16:55:52;13.48;;;5.72;;
68108;SDS011;54893;49.864;19.084;2023-02-03T17:00:54;12.73;;;6.63;;
68108;SDS011;54893;49.864;19.084;2023-02-03T17:06:00;16.77;;;6.95;;
68108;SDS011;54893;49.864;19.084;2023-02-03T17:11:07;16.50;;;7.15;;
68108;SDS011;54893;49.864;19.084;2023-02-03T17:16:18;18.23;;;7.23;;
68108;SDS011;54893;49.864;19.084;2023-02-03T17:21:21;15.30;;;6.75;;
68108;SDS011;54893;49.864;19.084;2023-02-03T17:26:25;22.30;;;8.77;;
68108;SDS011;54893;49.864;19.084;2023-02-03T17:31:26;22.40;;;9.15;;
68108;SDS011;54893;49.864;19.084;2023-02-03T17:36:26;22.00;;;9.00;;
68108;SDS011;54893;49.864;19.084;2023-02-03T17:41:26;21.37;;;8.47;;
68108;SDS011;54893;49.864;19.084;2023-02-03T17:46:27;21.00;;;9.00;;
68108;SDS011;54893;49.864;19.084;2023-02-03T17:51:28;20.17;;;8.82;;
68108;SDS011;54893;49.864;19.084;2023-02-03T17:56:29;18.60;;;7.30;;
68108;SDS011;54893;49.864;19.084;2023-02-03T18:01:30;20.23;;;7.32;;
68108;SDS011;54893;49.864;19.084;2023-02-03T18:06:31;21.63;;;9.33;;
68108;SDS011;54893;49.864;19.084;2023-02-03T18:11:34;21.80;;;8.45;;
68108;SDS011;54893;49.864;19.084;2023-02-03T18:16:35;20.88;;;8.38;;
68108;SDS011;54893;49.864;19.084;2023-02-03T18:21:36;25.48;;;8.27;;
68108;SDS011;54893;49.864;19.084;2023-02-03T18:26:43;26.70;;;8.60;;
68108;SDS011;54893;49.864;19.084;2023-02-03T18:31:48;21.98;;;7.50;;
68108;SDS011;54893;49.864;19.084;2023-02-03T18:36:49;22.27;;;8.00;;
68108;SDS011;54893;49.864;19.084;2023-02-03T18:41:49;25.10;;;9.17;;
68108;SDS011;54893;49.864;19.084;2023-02-03T18:46:50;24.92;;;9.65;;
68108;SDS011;54893;49.864;19.084;2023-02-03T18:51:51;23.27;;;9.32;;
68108;SDS011;54893;49.864;19.084;2023-02-03T18:56:52;22.50;;;7.32;;
68108;SDS011;54893;49.864;19.084;2023-02-03T19:01:52;18.58;;;5.68;;
68108;SDS011;54893;49.864;19.084;2023-02-03T19:06:53;23.73;;;8.43;;
68108;SDS011;54893;49.864;19.084;2023-02-03T19:11:53;25.23;;;8.27;;
68108;SDS011;54893;49.864;19.084;2023-02-03T19:16:55;24.63;;;8.27;;
68108;SDS011;54893;49.864;19.084;2023-02-03T19:21:56;27.73;;;8.50;;
68108;SDS011;54893;49.864;19.084;2023-02-03T19:26:58;33.78;;;10.68;;
68108;SDS011;54893;49.864;19.084;2023-02-03T19:31:58;32.57;;;10.20;;
68108;SDS011;54893;49.864;19.084;2023-02-03T19:36:59;29.80;;;10.65;;
68108;SDS011;54893;49.864;19.084;2023-02-03T19:41:59;28.50;;;10.93;;
68108;SDS011;54893;49.864;19.084;2023-02-03T19:47:00;21.00;;;5.47;;
68108;SDS011;54893;49.864;19.084;2023-02-03T19:52:02;20.17;;;6.75;;
68108;SDS011;54893;49.864;19.084;2023-02-03T19:57:02;28.17;;;12.20;;
68108;SDS011;54893;49.864;19.084;2023-02-03T20:02:03;32.27;;;10.53;;
68108;SDS011;54893;49.864;19.084;2023-02-03T20:07:03;25.97;;;6.67;;
68108;SDS011;54893;49.864;19.084;2023-02-03T20:12:04;28.33;;;7.83;;
68108;SDS011;54893;49.864;19.084;2023-02-03T20:17:04;26.40;;;7.77;;
68108;SDS011;54893;49.864;19.084;2023-02-03T20:22:06;32.90;;;10.43;;
68108;SDS011;54893;49.864;19.084;2023-02-03T20:27:06;37.10;;;10.70;;
68108;SDS011;54893;49.864;19.084;2023-02-03T20:32:07;36.92;;;10.02;;
68108;SDS011;54893;49.864;19.084;2023-02-03T20:37:08;27.90;;;7.53;;
68108;SDS011;54893;49.864;19.084;2023-02-03T20:42:10;27.87;;;7.87;;
68108;SDS011;54893;49.864;19.084;2023-02-03T20:47:15;38.97;;;10.33;;
68108;SDS011;54893;49.864;19.084;2023-02-03T20:52:21;36.85;;;9.45;;
68108;SDS011;54893;49.864;19.084;2023-02-03T20:57:21;33.90;;;8.40;;
68108;SDS011;54893;49.864;19.084;2023-02-03T21:02:22;35.93;;;9.07;;
68108;SDS011;54893;49.864;19.084;2023-02-03T21:07:32;41.72;;;10.85;;
68108;SDS011;54893;49.864;19.084;2023-02-03T21:12:32;33.80;;;10.13;;
68108;SDS011;54893;49.864;19.084;2023-02-03T21:17:33;38.57;;;8.77;;
68108;SDS011;54893;49.864;19.084;2023-02-03T21:22:34;38.50;;;9.45;;
68108;SDS011;54893;49.864;19.084;2023-02-03T21:27:35;38.58;;;10.98;;
68108;SDS011;54893;49.864;19.084;2023-02-03T21:32:39;38.00;;;9.77;;
68108;SDS011;54893;49.864;19.084;2023-02-03T21:37:39;41.90;;;11.02;;
68108;SDS011;54893;49.864;19.084;2023-02-03T21:42:40;38.92;;;11.23;;
68108;SDS011;54893;49.864;19.084;2023-02-03T21:47:41;37.97;;;10.97;;
68108;SDS011;54893;49.864;19.084;2023-02-03T21:52:43;44.55;;;8.05;;
68108;SDS011;54893;49.864;19.084;2023-02-03T21:57:44;40.40;;;9.63;;
68108;SDS011;54893;49.864;19.084;2023-02-03T22:07:58;33.22;;;8.63;;
68108;SDS011;54893;49.864;19.084;2023-02-03T22:12:58;34.77;;;9.13;;
68108;SDS011;54893;49.864;19.084;2023-02-03T22:17:59;31.23;;;7.57;;
68108;SDS011;54893;49.864;19.084;2023-02-03T22:22:59;28.10;;;7.70;;
68108;SDS011;54893;49.864;19.084;2023-02-03T22:27:59;26.40;;;6.43;;
68108;SDS011;54893;49.864;19.084;2023-02-03T22:33:00;24.80;;;5.60;;
68108;SDS011;54893;49.864;19.084;2023-02-03T22:38:01;26.10;;;6.45;;
68108;SDS011;54893;49.864;19.084;2023-02-03T22:43:01;26.03;;;8.03;;
68108;SDS011;54893;49.864;19.084;2023-02-03T22:48:02;22.07;;;7.23;;
68108;SDS011;54893;49.864;19.084;2023-02-03T22:53:03;23.23;;;6.55;;
68108;SDS011;54893;49.864;19.084;2023-02-03T22:58:05;19.77;;;5.70;;
68108;SDS011;54893;49.864;19.084;2023-02-03T23:03:06;24.75;;;6.07;;
68108;SDS011;54893;49.864;19.084;2023-02-03T23:08:06;25.35;;;7.40;;
68108;SDS011;54893;49.864;19.084;2023-02-03T23:13:06;33.17;;;9.20;;
68108;SDS011;54893;49.864;19.084;2023-02-03T23:18:07;29.63;;;9.77;;
68108;SDS011;54893;49.864;19.084;2023-02-03T23:23:07;37.13;;;13.77;;
68108;SDS011;54893;49.864;19.084;2023-02-03T23:28:07;33.07;;;13.10;;
68108;SDS011;54893;49.864;19.084;2023-02-03T23:33:08;27.17;;;10.52;;
68108;SDS011;54893;49.864;19.084;2023-02-03T23:38:08;30.33;;;8.97;;
68108;SDS011;54893;49.864;19.084;2023-02-03T23:43:09;26.73;;;9.93;;
68108;SDS011;54893;49.864;19.084;2023-02-03T23:48:09;23.33;;;8.57;;
68108;SDS011;54893;49.864;19.084;2023-02-03T23:53:11;25.00;;;7.60;;
68108;SDS011;54893;49.864;19.084;2023-02-03T23:58:11;17.40;;;5.00;;
